Time;durP1;ratioP1;P1;durP2;ratioP2;P2;SDS_P1;SDS_P2;PMS_P1;PMS_P2;Temp;Humidity;BMP_temperature;BMP_pressure;BME280_temperature;BME280_humidity;BME280_pressure;Samples;Min_cycle;Max_cycle;Signal;HPM_P1;HPM_P2
2022/01/29 00:01:34;;;;;;;35.17;15.75;;;6.90;99.90;;;;;;5109567;27;20054;-84
2022/01/29 00:04:19;;;;;;;31.98;15.00;;;7.10;99.90;;;;;;5123953;27;20429;-85
2022/01/29 00:07:03;;;;;;;29.52;15.65;;;6.80;99.90;;;;;;5137736;27;20101;-84
2022/01/29 00:09:48;;;;;;;31.20;16.27;;;6.80;99.90;;;;;;5153851;27;20037;-85
2022/01/29 00:12:32;;;;;;;35.15;14.68;;;6.80;99.90;;;;;;5154098;27;20423;-84
2022/01/29 00:15:16;;;;;;;33.83;15.13;;;6.80;99.90;;;;;;5153417;27;20522;-84
2022/01/29 00:18:00;;;;;;;39.40;17.33;;;6.70;99.90;;;;;;5137609;27;20506;-84
2022/01/29 00:20:45;;;;;;;35.80;16.98;;;7.30;99.90;;;;;;5153724;27;20034;-84
2022/01/29 00:23:29;;;;;;;;;;;6.70;99.90;;;;;;5154319;27;20498;-84
2022/01/29 00:26:13;;;;;;;37.78;17.58;;;6.70;99.90;;;;;;5152910;27;19918;-84
2022/01/29 00:28:58;;;;;;;31.65;16.20;;;6.90;99.90;;;;;;5123427;27;20087;-83
2022/01/29 00:31:42;;;;;;;41.05;18.90;;;7.80;99.90;;;;;;5137646;27;20037;-84
2022/01/29 00:34:27;;;;;;;42.40;19.02;;;6.90;99.90;;;;;;5137740;27;20098;-84
2022/01/29 00:37:11;;;;;;;42.75;21.02;;;6.60;99.90;;;;;;5155171;27;20050;-84
2022/01/29 00:39:55;;;;;;;37.55;18.85;;;7.50;99.90;;;;;;5141603;27;20155;-85
2022/01/29 00:42:39;;;;;;;42.40;20.30;;;6.60;99.90;;;;;;5141751;27;20460;-84
2022/01/29 00:45:24;;;;;;;40.10;19.95;;;6.60;99.90;;;;;;5156721;27;20103;-84
2022/01/29 00:48:08;;;;;;;41.00;21.23;;;7.20;99.90;;;;;;5156790;27;20042;-84
2022/01/29 00:50:53;;;;;;;;;;;6.90;99.90;;;;;;5141846;27;20117;-85
2022/01/29 00:53:37;;;;;;;;;;;6.60;99.90;;;;;;5157622;27;19914;-85
2022/01/29 00:56:21;;;;;;;39.47;19.42;;;6.80;99.90;;;;;;5156617;27;20483;-85
2022/01/29 00:59:06;;;;;;;41.90;21.25;;;7.50;99.90;;;;;;5156432;27;20050;-85
2022/01/29 01:01:50;;;;;;;49.15;23.88;;;6.90;99.90;;;;;;5126765;27;20042;-85
2022/01/29 01:04:39;;;;;;;43.97;20.80;;;6.50;99.90;;;;;;5126670;27;20038;-84
2022/01/29 01:07:23;;;;;;;44.50;22.77;;;6.50;99.90;;;;;;5140612;27;20045;-84
2022/01/29 01:10:10;;;;;;;45.15;21.90;;;6.50;99.90;;;;;;5156474;27;20501;-84
2022/01/29 01:12:54;;;;;;;42.15;18.83;;;6.60;99.90;;;;;;5141136;27;20037;-84
2022/01/29 01:15:38;;;;;;;;;;;6.50;99.90;;;;;;5141194;27;20053;-84
2022/01/29 01:18:23;;;;;;;39.28;20.75;;;6.60;99.90;;;;;;5125897;27;20495;-85
2022/01/29 01:21:07;;;;;;;39.65;19.17;;;6.60;99.90;;;;;;5126035;27;20042;-84
2022/01/29 01:23:51;;;;;;;45.25;20.33;;;6.60;99.90;;;;;;5140857;27;20046;-84
2022/01/29 01:26:35;;;;;;;39.63;19.42;;;6.60;99.90;;;;;;5156609;27;20057;-84
2022/01/29 01:29:20;;;;;;;39.70;19.65;;;6.60;99.90;;;;;;5140341;27;20436;-85
2022/01/29 01:32:05;;;;;;;38.25;19.58;;;6.70;99.90;;;;;;5126228;27;20495;-84
2022/01/29 01:34:52;;;;;;;40.72;18.65;;;6.70;99.90;;;;;;5140585;27;20114;-84
2022/01/29 01:37:45;;;;;;;36.95;19.05;;;6.70;99.90;;;;;;5156248;27;20092;-84
2022/01/29 01:40:30;;;;;;;38.53;19.73;;;7.30;99.90;;;;;;5140233;27;20595;-84
2022/01/29 01:43:14;;;;;;;35.03;16.77;;;6.80;99.90;;;;;;5155674;27;20079;-85
2022/01/29 01:45:58;;;;;;;39.35;17.02;;;6.80;99.90;;;;;;5156708;27;20131;-84
2022/01/29 01:48:44;;;;;;;39.95;18.65;;;6.90;99.90;;;;;;5140539;27;20459;-84
2022/01/29 01:51:30;;;;;;;40.33;18.95;;;7.00;99.90;;;;;;5140027;27;20038;-85
2022/01/29 01:54:14;;;;;;;40.42;18.70;;;7.00;99.90;;;;;;5155509;27;20058;-85
2022/01/29 01:56:58;;;;;;;;;;;7.00;99.90;;;;;;5140505;27;20037;-85
2022/01/29 01:59:43;;;;;;;;;;;7.00;99.90;;;;;;5156459;27;19918;-84
2022/01/29 02:02:27;;;;;;;;;;;7.50;99.90;;;;;;5140083;27;20430;-84
2022/01/29 02:05:12;;;;;;;40.08;18.33;;;7.10;99.90;;;;;;5155570;27;19960;-84
2022/01/29 02:07:57;;;;;;;40.17;20.02;;;7.10;99.90;;;;;;5155651;27;20057;-84
2022/01/29 02:10:45;;;;;;;38.83;18.13;;;7.10;99.90;;;;;;5155528;27;20496;-83
2022/01/29 02:13:30;;;;;;;38.92;18.50;;;7.20;99.90;;;;;;5139395;27;20041;-84
2022/01/29 02:16:14;;;;;;;43.25;17.88;;;7.20;99.90;;;;;;5139361;27;20511;-83
2022/01/29 02:18:58;;;;;;;;;;;7.20;99.90;;;;;;5140249;27;20118;-84
2022/01/29 02:21:42;;;;;;;35.33;17.73;;;7.80;99.90;;;;;;5155435;27;19922;-84
2022/01/29 02:24:27;;;;;;;;;;;7.30;99.90;;;;;;5154929;27;20042;-84
2022/01/29 02:27:11;;;;;;;44.75;20.02;;;8.10;99.90;;;;;;5155208;27;20010;-83
2022/01/29 02:29:55;;;;;;;51.90;19.15;;;7.30;99.90;;;;;;5154983;27;20091;-83
2022/01/29 02:32:42;;;;;;;42.45;19.02;;;7.30;99.90;;;;;;5122991;27;20083;-84
2022/01/29 02:35:27;;;;;;;43.33;19.10;;;7.30;99.90;;;;;;5154605;27;20075;-84
2022/01/29 02:38:15;;;;;;;45.30;19.92;;;7.40;99.90;;;;;;5154910;27;20049;-83
2022/01/29 02:41:02;;;;;;;43.00;19.92;;;7.40;99.90;;;;;;5155016;27;20642;-84
2022/01/29 02:43:48;;;;;;;45.15;18.92;;;7.40;99.90;;;;;;5155106;27;20030;-84
2022/01/29 02:46:50;;;;;;;46.42;17.95;;;8.30;99.90;;;;;;5154493;27;20463;-83
2022/01/29 02:49:34;;;;;;;57.55;19.48;;;9.00;99.90;;;;;;5138691;27;20077;-84
2022/01/29 02:52:18;;;;;;;42.75;17.73;;;7.40;99.90;;;;;;5154609;27;20107;-83
2022/01/29 02:55:04;;;;;;;37.28;19.73;;;7.80;99.90;;;;;;5139079;27;20048;-84
2022/01/29 02:57:49;;;;;;;34.38;18.15;;;7.40;99.90;;;;;;5138927;27;20130;-84
2022/01/29 03:00:33;;;;;;;44.65;18.55;;;7.40;99.90;;;;;;5138054;27;20077;-84
2022/01/29 03:03:18;;;;;;;44.40;18.08;;;7.40;99.90;;;;;;5154583;27;20061;-84
2022/01/29 03:06:07;;;;;;;48.75;19.10;;;7.50;99.90;;;;;;5154694;27;20120;-84
2022/01/29 03:08:52;;;;;;;46.40;18.08;;;7.50;99.90;;;;;;5139608;27;20077;-84
2022/01/29 03:11:36;;;;;;;40.10;19.15;;;7.50;99.90;;;;;;5124006;27;20481;-84
2022/01/29 03:14:21;;;;;;;44.85;19.80;;;7.50;99.90;;;;;;5154535;27;20399;-84
2022/01/29 03:17:05;;;;;;;42.50;18.85;;;7.50;99.90;;;;;;5138731;27;20038;-84
2022/01/29 03:19:52;;;;;;;;;;;7.60;99.90;;;;;;5154929;27;20053;-84
2022/01/29 03:22:37;;;;;;;42.10;18.10;;;7.50;99.90;;;;;;5153973;27;19961;-83
2022/01/29 03:25:21;;;;;;;42.15;19.13;;;7.60;99.90;;;;;;5154215;27;20433;-84
2022/01/29 03:28:05;;;;;;;35.15;18.27;;;7.60;99.90;;;;;;5154274;27;20505;-84
2022/01/29 03:30:49;;;;;;;45.60;20.23;;;7.60;99.90;;;;;;5154105;27;20507;-83
2022/01/29 03:33:34;;;;;;;44.30;17.85;;;7.60;99.90;;;;;;5138190;27;20118;-84
2022/01/29 03:36:18;;;;;;;42.60;16.98;;;7.60;99.90;;;;;;5154285;27;20034;-83
2022/01/29 03:39:03;;;;;;;38.50;19.30;;;7.60;99.90;;;;;;5154238;27;20077;-84
2022/01/29 03:41:47;;;;;;;41.22;18.92;;;7.60;99.90;;;;;;5138091;27;20046;-84
2022/01/29 03:44:32;;;;;;;33.03;17.05;;;7.90;99.90;;;;;;5123342;27;20126;-84
2022/01/29 03:47:16;;;;;;;37.55;18.33;;;7.70;99.90;;;;;;5153877;27;20099;-83
2022/01/29 03:50:00;;;;;;;38.00;17.80;;;7.70;99.90;;;;;;5123936;27;20034;-84
2022/01/29 03:52:44;;;;;;;41.20;17.98;;;7.70;99.90;;;;;;5153653;27;20398;-83
2022/01/29 03:55:28;;;;;;;33.83;17.92;;;8.50;99.90;;;;;;5153595;27;20042;-84
2022/01/29 03:58:12;;;;;;;;;;;7.70;99.90;;;;;;5154483;27;20054;-84
2022/01/29 04:00:56;;;;;;;43.20;16.70;;;7.80;99.90;;;;;;5154201;27;19966;-84
2022/01/29 04:03:40;;;;;;;;;;;8.80;99.90;;;;;;5153911;27;20042;-83
2022/01/29 04:06:25;;;;;;;35.78;17.58;;;7.70;99.90;;;;;;5138340;27;19961;-85
2022/01/29 04:09:11;;;;;;;34.95;17.13;;;7.80;99.90;;;;;;5153902;27;20065;-84
2022/01/29 04:11:55;;;;;;;36.25;18.70;;;7.80;99.90;;;;;;5140675;27;20033;-84
2022/01/29 04:14:40;;;;;;;34.60;16.95;;;7.80;99.90;;;;;;5157465;27;20042;-84
2022/01/29 04:17:24;;;;;;;39.55;19.25;;;7.90;99.90;;;;;;5141977;27;20049;-83
2022/01/29 04:20:09;;;;;;;;;;;7.80;99.90;;;;;;5158164;27;20125;-83
2022/01/29 04:22:53;;;;;;;32.15;15.95;;;7.80;99.90;;;;;;5157330;27;19918;-84
2022/01/29 04:25:37;;;;;;;33.85;16.75;;;7.90;99.90;;;;;;5141542;27;20531;-84
2022/01/29 04:28:29;;;;;;;35.78;16.77;;;7.80;99.90;;;;;;5142007;27;20421;-83
2022/01/29 04:31:18;;;;;;;32.75;16.08;;;7.80;99.90;;;;;;5157650;27;20038;-84
2022/01/29 04:34:03;;;;;;;34.50;16.77;;;7.80;99.90;;;;;;5142747;27;20091;-83
2022/01/29 04:36:48;;;;;;;30.58;15.73;;;7.90;99.90;;;;;;5156924;27;20074;-84
2022/01/29 04:39:32;;;;;;;29.77;16.67;;;8.20;99.90;;;;;;5157325;27;20045;-84
2022/01/29 04:42:16;;;;;;;31.63;16.00;;;7.90;99.90;;;;;;5157292;27;20065;-84
2022/01/29 04:45:00;;;;;;;27.80;14.68;;;8.10;99.90;;;;;;5141519;27;20514;-83
2022/01/29 04:47:45;;;;;;;32.05;14.95;;;7.90;99.90;;;;;;5156853;27;20053;-84
2022/01/29 04:50:29;;;;;;;28.98;15.05;;;7.90;99.90;;;;;;5141549;27;20110;-83
2022/01/29 04:53:13;;;;;;;30.30;16.52;;;8.00;99.90;;;;;;5141659;27;20107;-84
2022/01/29 04:55:57;;;;;;;28.30;14.68;;;8.00;99.90;;;;;;5156638;27;20472;-83
2022/01/29 04:58:42;;;;;;;28.63;15.60;;;8.00;99.90;;;;;;5156505;27;20049;-84
2022/01/29 05:01:26;;;;;;;26.10;15.20;;;8.30;99.90;;;;;;5141180;27;20037;-83
2022/01/29 05:04:10;;;;;;;27.70;15.38;;;8.00;99.90;;;;;;5126821;27;20068;-84
2022/01/29 05:06:55;;;;;;;27.70;14.10;;;8.30;99.90;;;;;;5126168;27;20045;-84
2022/01/29 05:09:38;;;;;;;;;;;8.00;99.90;;;;;;5141173;27;20034;-83
2022/01/29 05:12:30;;;;;;;33.60;15.57;;;8.00;99.90;;;;;;5156758;27;19914;-84
2022/01/29 05:27:14;;;;;;;29.60;13.93;;;8.10;99.90;;;;;;5156292;27;20046;-83
2022/01/29 05:29:58;;;;;;;26.75;15.25;;;8.20;99.90;;;;;;5140189;27;20122;-84
2022/01/29 05:32:42;;;;;;;;;;;8.80;99.90;;;;;;5156457;27;20078;-84
2022/01/29 05:35:27;;;;;;;28.55;14.20;;;8.10;99.90;;;;;;5156380;27;19914;-84
2022/01/29 05:38:11;;;;;;;;;;;8.20;99.90;;;;;;5156839;27;20045;-83
2022/01/29 05:40:55;;;;;;;25.40;13.50;;;8.10;99.90;;;;;;5155872;27;19937;-83
2022/01/29 05:43:39;;;;;;;27.52;13.55;;;8.30;99.90;;;;;;5156161;27;20045;-84
2022/01/29 05:46:24;;;;;;;25.33;14.48;;;8.20;99.90;;;;;;5140054;27;20061;-83
2022/01/29 05:49:08;;;;;;;31.27;13.38;;;8.20;99.90;;;;;;5155729;27;20041;-84
2022/01/29 05:51:52;;;;;;;26.60;13.50;;;8.30;99.90;;;;;;5155561;27;20098;-84
2022/01/29 05:54:36;;;;;;;;;;;8.50;99.90;;;;;;5156307;27;20034;-84
2022/01/29 05:57:20;;;;;;;21.40;12.70;;;8.30;99.90;;;;;;5140068;27;19921;-84
2022/01/29 06:00:05;;;;;;;;;;;8.30;99.90;;;;;;5155826;27;20415;-84
2022/01/29 06:03:00;;;;;;;25.48;12.48;;;8.30;99.90;;;;;;5155453;27;20385;-84
2022/01/29 06:05:44;;;;;;;23.00;12.40;;;8.40;99.90;;;;;;5155856;27;20109;-84
2022/01/29 06:08:29;;;;;;;23.50;12.77;;;9.20;99.90;;;;;;5125373;27;20088;-84
2022/01/29 06:11:13;;;;;;;25.65;12.32;;;8.40;99.90;;;;;;5155734;27;20111;-85
2022/01/29 06:13:58;;;;;;;23.75;13.32;;;8.40;99.90;;;;;;5154249;27;20037;-84
2022/01/29 06:16:42;;;;;;;28.00;12.85;;;8.50;99.90;;;;;;5155305;27;20107;-84
2022/01/29 06:19:27;;;;;;;21.27;11.13;;;8.50;99.90;;;;;;5139740;27;20085;-85
2022/01/29 06:22:13;;;;;;;;;;;8.50;99.90;;;;;;5155068;27;20044;-84
2022/01/29 06:24:58;;;;;;;23.65;12.60;;;8.50;99.90;;;;;;5139276;27;19918;-84
2022/01/29 06:27:42;;;;;;;24.52;11.95;;;8.50;99.90;;;;;;5139522;27;20390;-84
2022/01/29 06:30:26;;;;;;;21.58;11.43;;;10.10;99.90;;;;;;5155221;27;20054;-85
2022/01/29 06:33:12;;;;;;;24.98;12.27;;;8.50;99.90;;;;;;5155141;27;20420;-84
2022/01/29 06:35:56;;;;;;;21.48;11.90;;;8.90;99.90;;;;;;5139616;27;20087;-84
2022/01/29 06:38:41;;;;;;;25.88;11.30;;;8.60;99.90;;;;;;5155917;27;20126;-84
2022/01/29 06:41:25;;;;;;;21.20;11.27;;;8.60;99.90;;;;;;5156354;27;20049;-85
2022/01/29 06:44:09;;;;;;;24.75;12.40;;;8.50;99.90;;;;;;5139117;27;20091;-85
2022/01/29 06:46:53;;;;;;;23.75;11.07;;;8.50;99.90;;;;;;5124586;27;20501;-84
2022/01/29 06:49:38;;;;;;;18.88;10.20;;;8.60;99.90;;;;;;5154947;27;20167;-84
2022/01/29 06:52:22;;;;;;;19.08;10.98;;;8.70;99.90;;;;;;5155125;27;20167;-84
2022/01/29 06:55:06;;;;;;;20.67;10.55;;;9.50;99.90;;;;;;5138716;27;20129;-84
2022/01/29 06:57:51;;;;;;;27.60;12.15;;;8.70;99.90;;;;;;5154669;27;20094;-84
2022/01/29 07:00:35;;;;;;;16.08;9.48;;;8.70;99.90;;;;;;5154703;27;20049;-84
2022/01/29 07:03:19;;;;;;;;;;;8.60;99.90;;;;;;5139175;27;20083;-85
2022/01/29 07:06:04;;;;;;;17.55;9.20;;;8.70;99.90;;;;;;5154290;27;19918;-84
2022/01/29 07:08:48;;;;;;;19.38;10.32;;;8.70;99.90;;;;;;5154615;27;20041;-84
2022/01/29 07:11:32;;;;;;;20.00;10.18;;;8.70;99.90;;;;;;5138877;27;20122;-84
2022/01/29 07:14:17;;;;;;;;;;;8.70;99.90;;;;;;5138799;27;20045;-84
2022/01/29 07:17:01;;;;;;;16.38;9.65;;;8.70;99.90;;;;;;5154028;27;19922;-84
2022/01/29 07:19:45;;;;;;;16.27;9.82;;;8.70;99.90;;;;;;5138790;27;20145;-84
2022/01/29 07:22:30;;;;;;;;;;;9.00;99.90;;;;;;5154992;27;20033;-84
2022/01/29 07:25:14;;;;;;;21.17;9.43;;;8.70;99.90;;;;;;5138227;27;20386;-84
2022/01/29 07:27:59;;;;;;;16.27;9.40;;;8.70;99.90;;;;;;5153941;27;20081;-84
2022/01/29 07:30:43;;;;;;;;;;;8.70;99.90;;;;;;5139091;27;20103;-84
2022/01/29 07:33:28;;;;;;;20.83;10.57;;;8.60;99.90;;;;;;5154535;27;19914;-84
2022/01/29 07:36:12;;;;;;;19.40;9.80;;;8.90;99.90;;;;;;5153905;27;20570;-84
2022/01/29 07:38:56;;;;;;;;;;;8.60;99.90;;;;;;5154550;27;20485;-84
2022/01/29 07:41:40;;;;;;;16.25;9.93;;;8.50;99.90;;;;;;5154199;27;19922;-84
2022/01/29 07:44:24;;;;;;;;;;;8.50;99.90;;;;;;5154098;27;20037;-83
2022/01/29 07:47:09;;;;;;;19.00;10.00;;;8.50;99.90;;;;;;5127632;27;20294;-84
2022/01/29 07:49:52;;;;;;;;;;;8.50;99.90;;;;;;5158852;27;20042;-83
2022/01/29 07:52:37;;;;;;;19.98;10.30;;;8.50;99.90;;;;;;5158391;27;19918;-84
2022/01/29 07:55:21;;;;;;;21.02;11.18;;;8.80;99.90;;;;;;5142126;27;20272;-83
2022/01/29 07:58:05;;;;;;;24.50;12.00;;;8.50;99.90;;;;;;5142127;27;20045;-86
2022/01/29 08:00:49;;;;;;;22.83;11.35;;;8.50;99.90;;;;;;5152578;27;20050;-83
2022/01/29 08:03:33;;;;;;;23.95;11.57;;;8.50;99.90;;;;;;5151246;27;20033;-83
2022/01/29 08:06:22;;;;;;;22.08;11.85;;;8.50;99.90;;;;;;5150845;27;20049;-83
2022/01/29 08:09:08;;;;;;;19.17;10.30;;;8.50;99.90;;;;;;5150574;27;20105;-83
2022/01/29 08:11:52;;;;;;;24.25;11.50;;;8.50;99.90;;;;;;5151398;27;20038;-83
2022/01/29 08:14:36;;;;;;;;;;;9.00;99.90;;;;;;5151311;27;20493;-83
2022/01/29 08:17:20;;;;;;;22.65;11.60;;;8.60;99.90;;;;;;5150534;27;20383;-83
2022/01/29 08:20:05;;;;;;;;;;;8.50;99.90;;;;;;5150756;27;20049;-83
2022/01/29 08:22:49;;;;;;;20.75;11.98;;;8.50;99.90;;;;;;5151003;27;19983;-83
2022/01/29 08:25:33;;;;;;;;;;;8.50;99.90;;;;;;5151292;27;20084;-83
2022/01/29 08:28:18;;;;;;;22.55;10.55;;;8.50;99.90;;;;;;5134567;27;20347;-83
2022/01/29 08:31:02;;;;;;;17.63;10.20;;;8.50;99.90;;;;;;5150771;27;20046;-83
2022/01/29 08:33:46;;;;;;;20.38;10.40;;;8.60;99.90;;;;;;5150365;27;20385;-84
2022/01/29 08:36:30;;;;;;;16.00;10.00;;;8.60;99.90;;;;;;5151008;27;20083;-83
2022/01/29 08:39:15;;;;;;;20.20;10.50;;;8.90;99.90;;;;;;5150006;27;20053;-83
2022/01/29 08:41:59;;;;;;;;;;;8.70;99.90;;;;;;5135253;27;20068;-83
2022/01/29 08:44:43;;;;;;;19.60;8.88;;;8.70;99.90;;;;;;5149890;27;20285;-82
2022/01/29 08:47:27;;;;;;;;;;;8.70;99.90;;;;;;5150457;27;20118;-83
2022/01/29 08:50:13;;;;;;;16.92;8.85;;;8.70;99.90;;;;;;5149737;27;19918;-82
2022/01/29 08:52:57;;;;;;;15.40;7.50;;;8.80;99.90;;;;;;5148529;27;20049;-82
2022/01/29 08:55:41;;;;;;;12.68;7.82;;;8.80;99.90;;;;;;5133500;27;20069;-82
2022/01/29 08:58:25;;;;;;;17.98;7.95;;;8.90;99.90;;;;;;5147584;27;20037;-83
2022/01/29 09:01:10;;;;;;;13.75;7.35;;;8.90;99.90;;;;;;5148782;27;20525;-82
2022/01/29 09:03:54;;;;;;;18.38;7.28;;;9.00;99.90;;;;;;5148866;27;20100;-82
2022/01/29 09:06:39;;;;;;;15.38;6.53;;;9.00;99.90;;;;;;5148978;27;20037;-83
2022/01/29 09:09:26;;;;;;;12.68;6.32;;;9.00;99.90;;;;;;5138666;27;20176;-83
2022/01/29 09:12:12;;;;;;;11.73;5.60;;;9.10;99.90;;;;;;5127886;27;20045;-83
2022/01/29 09:14:56;;;;;;;16.52;7.15;;;9.10;99.90;;;;;;5143558;27;20076;-82
2022/01/29 09:17:41;;;;;;;;;;;9.20;99.90;;;;;;5132541;27;20090;-84
2022/01/29 09:20:25;;;;;;;14.25;5.88;;;9.20;99.90;;;;;;5147894;27;20232;-82
2022/01/29 09:23:10;;;;;;;13.77;5.97;;;9.20;99.90;;;;;;5123104;27;20103;-83
2022/01/29 09:25:55;;;;;;;12.45;5.43;;;9.20;99.90;;;;;;5127584;27;20559;-83
2022/01/29 09:28:39;;;;;;;11.98;5.53;;;9.30;99.90;;;;;;5112572;27;20099;-83
2022/01/29 09:31:23;;;;;;;14.40;5.57;;;9.30;99.90;;;;;;5094984;27;20509;-83
2022/01/29 09:34:08;;;;;;;13.23;4.90;;;9.30;99.90;;;;;;5127637;27;20068;-83
2022/01/29 09:36:52;;;;;;;11.88;5.43;;;9.40;99.90;;;;;;5112211;27;20046;-85
2022/01/29 09:39:37;;;;;;;12.55;4.70;;;9.40;99.90;;;;;;5131981;27;20093;-83
2022/01/29 09:42:21;;;;;;;10.65;4.68;;;9.50;99.90;;;;;;5134549;27;20127;-83
2022/01/29 09:45:09;;;;;;;13.25;5.18;;;9.40;99.90;;;;;;5138084;27;20501;-83
2022/01/29 09:48:01;;;;;;;15.90;4.65;;;9.50;99.90;;;;;;5155449;27;20045;-83
2022/01/29 09:50:45;;;;;;;11.23;4.65;;;9.50;99.90;;;;;;5155366;27;20034;-83
2022/01/29 09:53:29;;;;;;;14.02;5.43;;;9.50;99.90;;;;;;5154912;27;20501;-84
2022/01/29 09:56:15;;;;;;;13.20;5.00;;;9.70;99.90;;;;;;5154964;27;20062;-83
2022/01/29 09:58:59;;;;;;;12.48;4.90;;;10.10;99.90;;;;;;5115842;27;20042;-83
2022/01/29 10:01:43;;;;;;;15.85;5.00;;;9.60;99.90;;;;;;5131530;27;20046;-83
2022/01/29 10:04:45;;;;;;;9.02;4.20;;;9.50;99.90;;;;;;5133004;27;20030;-82
2022/01/29 10:07:31;;;;;;;10.50;4.25;;;9.60;99.90;;;;;;5139201;27;20091;-86
2022/01/29 10:10:19;;;;;;;14.73;4.25;;;9.60;99.90;;;;;;5138508;27;20037;-88
2022/01/29 10:13:24;;;;;;;8.90;4.28;;;9.60;99.90;;;;;;5121786;27;20041;-84
2022/01/29 10:16:21;;;;;;;10.57;3.97;;;9.60;99.90;;;;;;5136628;27;20083;-86
2022/01/29 10:19:07;;;;;;;16.48;3.70;;;9.60;99.90;;;;;;5138527;27;20497;-84
2022/01/29 10:21:52;;;;;;;9.07;3.80;;;9.70;99.90;;;;;;5139600;27;20163;-83
2022/01/29 10:24:50;;;;;;;12.40;3.55;;;9.70;99.90;;;;;;5153149;27;20038;-84
2022/01/29 10:27:34;;;;;;;15.63;4.53;;;9.70;99.90;;;;;;5138511;27;20503;-83
2022/01/29 10:30:19;;;;;;;10.77;4.10;;;9.70;99.90;;;;;;5124703;27;20037;-83
2022/01/29 10:33:29;;;;;;;11.32;4.13;;;9.70;99.90;;;;;;5124821;27;20131;-83
2022/01/29 10:36:19;;;;;;;7.60;3.78;;;9.70;99.90;;;;;;5154995;27;20418;-83
2022/01/29 10:39:04;;;;;;;10.88;3.90;;;9.70;99.90;;;;;;5154583;27;20061;-83
2022/01/29 10:41:48;;;;;;;11.95;4.10;;;9.70;99.90;;;;;;5124616;27;20050;-83
2022/01/29 10:44:44;;;;;;;10.30;3.67;;;9.70;99.90;;;;;;5138345;27;20444;-82
2022/01/29 10:47:29;;;;;;;13.50;3.67;;;9.80;99.90;;;;;;5132405;27;20050;-85
2022/01/29 10:50:14;;;;;;;13.00;3.83;;;9.80;99.90;;;;;;5134025;27;20041;-82
2022/01/29 10:53:25;;;;;;;12.77;3.33;;;9.70;99.90;;;;;;5132926;27;20037;-82
2022/01/29 10:56:09;;;;;;;12.52;4.45;;;9.80;99.90;;;;;;5132842;27;20033;-83
2022/01/29 10:58:54;;;;;;;10.73;3.85;;;9.80;99.90;;;;;;5133661;27;20119;-83
2022/01/29 11:01:38;;;;;;;11.93;4.05;;;9.80;99.90;;;;;;5117670;27;20470;-82
2022/01/29 11:04:25;;;;;;;9.30;3.10;;;9.80;99.90;;;;;;5118031;27;20107;-83
2022/01/29 11:07:17;;;;;;;9.18;2.65;;;9.90;99.90;;;;;;5132024;27;20037;-83
2022/01/29 11:10:06;;;;;;;9.98;3.40;;;9.80;99.90;;;;;;5133107;27;20090;-81
2022/01/29 11:12:50;;;;;;;10.15;3.13;;;9.80;99.90;;;;;;5121048;27;20033;-84
2022/01/29 11:15:34;;;;;;;12.80;3.97;;;9.80;99.90;;;;;;5114891;27;20038;-83
2022/01/29 11:18:19;;;;;;;8.70;2.95;;;9.80;99.90;;;;;;5130974;27;20038;-82
2022/01/29 11:21:04;;;;;;;11.20;3.08;;;9.80;99.90;;;;;;5131095;27;20099;-82
2022/01/29 11:23:48;;;;;;;9.00;2.72;;;9.80;99.90;;;;;;5116682;27;20530;-83
2022/01/29 11:26:34;;;;;;;9.70;2.50;;;9.80;99.90;;;;;;5116363;27;20034;-83
2022/01/29 11:29:30;;;;;;;7.10;2.47;;;9.90;99.90;;;;;;5131374;27;20099;-83
2022/01/29 11:32:21;;;;;;;13.05;2.58;;;9.90;99.90;;;;;;5132438;27;20034;-83
2022/01/29 11:35:21;;;;;;;17.13;2.90;;;9.90;99.90;;;;;;5132327;27;20061;-83
2022/01/29 11:38:08;;;;;;;7.63;2.38;;;10.00;99.90;;;;;;5130123;27;20101;-83
2022/01/29 11:40:55;;;;;;;9.63;2.33;;;10.00;99.90;;;;;;5131047;28;20407;-83
2022/01/29 11:43:39;;;;;;;11.07;2.47;;;10.00;99.90;;;;;;5131266;28;20084;-83
2022/01/29 11:46:31;;;;;;;;;;;10.10;99.90;;;;;;5133129;27;20053;-85
2022/01/29 11:49:21;;;;;;;7.38;2.33;;;10.20;99.90;;;;;;5116042;27;19992;-83
2022/01/29 11:52:21;;;;;;;11.07;2.88;;;10.20;99.90;;;;;;5131555;27;20110;-83
2022/01/29 11:55:07;;;;;;;9.00;2.58;;;10.20;99.90;;;;;;5130877;27;20076;-84
2022/01/29 11:58:16;;;;;;;13.60;2.63;;;10.20;99.90;;;;;;5130616;27;20087;-83
2022/01/29 12:01:03;;;;;;;14.18;2.25;;;10.20;99.90;;;;;;5127545;27;20079;-84
2022/01/29 12:03:48;;;;;;;14.35;2.53;;;10.30;99.90;;;;;;5131337;28;20091;-84
2022/01/29 12:06:35;;;;;;;8.73;2.28;;;10.40;99.90;;;;;;5131556;27;20074;-84
2022/01/29 12:09:19;;;;;;;9.30;1.95;;;10.40;99.90;;;;;;5132108;28;20162;-84
2022/01/29 12:12:27;;;;;;;5.68;1.67;;;10.40;99.90;;;;;;5131389;27;20081;-84
2022/01/29 12:15:11;;;;;;;11.00;2.47;;;10.50;99.90;;;;;;5116817;28;20086;-83
2022/01/29 12:18:00;;;;;;;;;;;10.50;99.90;;;;;;5130751;28;20095;-84
2022/01/29 12:20:44;;;;;;;9.80;2.00;;;10.50;99.90;;;;;;5132656;28;19972;-83
2022/01/29 12:23:30;;;;;;;9.13;2.40;;;10.60;99.90;;;;;;5132128;28;20343;-84
2022/01/29 12:26:20;;;;;;;10.57;2.30;;;10.60;99.90;;;;;;5132135;28;20095;-83
2022/01/29 12:29:04;;;;;;;12.80;2.38;;;10.60;99.90;;;;;;5133045;28;20069;-83
2022/01/29 12:31:52;;;;;;;20.65;2.92;;;10.60;99.90;;;;;;5131606;27;20498;-84
2022/01/29 12:34:38;;;;;;;8.32;2.58;;;10.60;99.90;;;;;;5135338;27;20489;-84
2022/01/29 12:37:22;;;;;;;7.90;2.10;;;10.70;99.90;;;;;;5135755;27;20125;-84
2022/01/29 12:40:18;;;;;;;11.60;2.17;;;10.60;99.90;;;;;;5136683;27;20551;-84
2022/01/29 12:43:11;;;;;;;11.88;2.50;;;10.60;99.90;;;;;;5135732;27;20046;-83
2022/01/29 12:46:16;;;;;;;6.85;2.10;;;10.60;99.90;;;;;;5125114;27;20156;-83
2022/01/29 12:49:10;;;;;;;7.88;1.85;;;10.70;99.90;;;;;;5156724;27;20033;-84
2022/01/29 12:51:59;;;;;;;11.05;2.10;;;10.70;99.90;;;;;;5156628;27;20038;-83
2022/01/29 12:54:58;;;;;;;9.13;1.95;;;10.70;99.90;;;;;;5157052;27;20038;-83
2022/01/29 12:57:48;;;;;;;6.55;2.67;;;10.70;99.90;;;;;;5156559;27;20034;-84
2022/01/29 13:00:33;;;;;;;9.55;2.03;;;10.70;99.90;;;;;;5157025;27;20042;-84
2022/01/29 13:03:18;;;;;;;10.30;2.78;;;10.70;99.90;;;;;;5126839;27;20451;-83
2022/01/29 13:06:14;;;;;;;8.02;2.10;;;10.70;99.90;;;;;;5140913;27;20394;-84
2022/01/29 13:09:18;;;;;;;10.80;2.65;;;10.60;99.90;;;;;;5156456;27;20094;-84
2022/01/29 13:12:04;;;;;;;9.93;2.20;;;10.70;99.90;;;;;;5140608;27;20126;-85
2022/01/29 13:14:52;;;;;;;8.57;2.25;;;10.70;99.90;;;;;;5156316;27;20099;-84
2022/01/29 13:17:42;;;;;;;10.05;3.05;;;10.70;99.90;;;;;;5140846;27;20062;-85
2022/01/29 13:20:26;;;;;;;7.80;2.10;;;10.70;99.90;;;;;;5126845;27;20447;-85
2022/01/29 13:23:11;;;;;;;10.50;2.00;;;10.70;99.90;;;;;;5140946;27;20090;-85
2022/01/29 13:25:55;;;;;;;9.00;2.40;;;10.70;99.90;;;;;;5156111;27;20041;-85
2022/01/29 13:28:46;;;;;;;;;;;10.70;99.90;;;;;;5126730;27;20084;-84
2022/01/29 13:31:42;;;;;;;8.23;1.85;;;10.70;99.90;;;;;;5155291;27;19914;-84
2022/01/29 13:34:30;;;;;;;10.15;2.33;;;10.80;99.90;;;;;;5141251;27;20091;-84
2022/01/29 13:37:34;;;;;;;7.22;2.30;;;10.80;99.90;;;;;;5139908;27;20043;-84
2022/01/29 13:40:20;;;;;;;9.40;1.83;;;10.80;99.90;;;;;;5154728;27;20180;-84
2022/01/29 13:43:07;;;;;;;8.25;2.05;;;10.90;99.90;;;;;;5155186;27;20508;-83
2022/01/29 13:45:53;;;;;;;11.23;2.53;;;10.90;99.90;;;;;;5155714;27;20050;-84
2022/01/29 13:48:55;;;;;;;16.73;5.32;;;11.00;99.90;;;;;;5140323;27;20037;-83
2022/01/29 13:51:41;;;;;;;10.30;2.50;;;11.00;99.90;;;;;;5156044;27;20547;-83
2022/01/29 13:54:26;;;;;;;6.00;1.95;;;11.00;99.90;;;;;;5140724;27;20046;-83
2022/01/29 13:57:11;;;;;;;8.35;3.10;;;11.00;99.90;;;;;;5154965;27;20046;-84
2022/01/29 14:00:04;;;;;;;10.10;2.38;;;11.00;99.90;;;;;;5155199;27;20163;-83
2022/01/29 14:02:49;;;;;;;8.07;2.20;;;11.00;99.90;;;;;;5155378;27;20114;-84
2022/01/29 14:05:33;;;;;;;8.13;2.08;;;10.90;99.90;;;;;;5155627;27;20083;-83
2022/01/29 14:08:20;;;;;;;;;;;11.00;99.90;;;;;;5140403;27;20045;-84
2022/01/29 14:11:07;;;;;;;9.90;2.15;;;11.00;99.90;;;;;;5155200;27;19914;-83
2022/01/29 14:13:51;;;;;;;14.95;2.50;;;10.90;99.90;;;;;;5155159;27;20087;-84
2022/01/29 14:16:35;;;;;;;;;;;11.00;99.90;;;;;;5155963;27;20038;-83
2022/01/29 14:19:21;;;;;;;6.57;2.22;;;11.00;99.90;;;;;;5139854;27;19963;-83
2022/01/29 14:22:09;;;;;;;10.13;1.98;;;11.00;99.90;;;;;;5139221;27;20102;-83
2022/01/29 14:24:55;;;;;;;9.75;1.83;;;11.00;99.90;;;;;;5139176;27;20075;-83
2022/01/29 14:27:40;;;;;;;7.88;1.73;;;11.00;99.90;;;;;;5139528;27;20064;-83
2022/01/29 14:30:25;;;;;;;9.30;1.70;;;11.10;99.90;;;;;;5155281;27;20153;-83
2022/01/29 14:33:10;;;;;;;9.88;2.15;;;11.10;99.90;;;;;;5139171;27;20103;-83
2022/01/29 14:35:54;;;;;;;;;;;11.20;99.90;;;;;;5124840;27;20045;-83
2022/01/29 14:38:38;;;;;;;;;;;11.20;99.90;;;;;;5155547;27;19981;-83
2022/01/29 14:41:22;;;;;;;8.98;1.70;;;11.20;99.90;;;;;;5139573;27;19961;-83
2022/01/29 14:44:07;;;;;;;8.68;1.73;;;11.30;99.90;;;;;;5154548;27;20417;-84